Time;durP1;ratioP1;P1;durP2;ratioP2;P2;SDS_P1;SDS_P2;PMS_P1;PMS_P2;Temp;Humidity;BMP_temperature;BMP_pressure;BME280_temperature;BME280_humidity;BME280_pressure;Samples;Min_cycle;Max_cycle;Signal;HPM_P1;HPM_P2
2022/01/22 00:01:03;;;;;;;2.60;1.77;;;5.90;99.90;;;6.03;77.71;102248.97;4985223;28;20287;-71
2022/01/22 00:03:30;;;;;;;3.40;2.33;;;5.90;99.90;;;6.06;77.37;102248.03;4970706;28;20235;-71
2022/01/22 00:05:57;;;;;;;2.72;1.60;;;5.90;99.90;;;6.13;76.53;102252.19;4972513;28;20260;-71
2022/01/22 00:08:24;;;;;;;2.22;2.13;;;6.00;99.90;;;6.07;77.51;102249.72;4972216;28;20660;-71
2022/01/22 00:10:52;;;;;;;2.58;1.55;;;5.90;99.90;;;6.06;77.24;102248.03;4973658;28;20204;-70
2022/01/22 00:15:48;;;;;;;1.60;1.50;;;5.90;99.90;;;6.11;76.61;102234.06;4970878;28;20226;-71
2022/01/22 00:18:15;;;;;;;2.40;2.22;;;6.00;99.90;;;6.17;76.23;102233.06;4973979;28;20365;-71
2022/01/22 00:20:43;;;;;;;1.52;1.42;;;6.00;99.90;;;6.12;76.82;102233.19;4972976;28;20255;-71
2022/01/22 00:23:11;;;;;;;2.75;2.42;;;6.00;99.90;;;6.08;76.58;102230.72;4955220;28;20628;-71
2022/01/22 00:25:38;;;;;;;5.68;1.23;;;5.90;99.90;;;6.05;77.16;102220.41;4954328;29;20310;-71
2022/01/22 00:28:05;;;;;;;2.28;1.92;;;5.90;99.90;;;6.00;77.29;102219.72;4954304;29;20764;-71
2022/01/22 00:30:32;;;;;;;2.58;2.30;;;5.80;99.90;;;6.02;77.43;102221.38;4961189;28;20280;-71
2022/01/22 00:32:59;;;;;;;1.58;1.48;;;5.80;99.90;;;6.02;77.58;102208.44;4956812;28;20236;-72
2022/01/22 00:35:26;;;;;;;1.70;1.60;;;5.90;99.90;;;6.07;77.53;102208.28;4969740;28;20227;-72
2022/01/22 00:37:53;;;;;;;3.67;2.25;;;5.90;99.90;;;5.98;77.87;102201.63;4972893;28;20208;-73
2022/01/22 00:40:22;;;;;;;2.42;1.88;;;5.80;99.90;;;6.08;77.54;102204.78;4974792;28;20295;-72
2022/01/22 00:42:49;;;;;;;1.42;1.33;;;5.90;99.90;;;6.03;77.94;102224.78;4973488;28;20208;-73
2022/01/22 00:45:18;;;;;;;3.47;1.60;;;5.80;99.90;;;6.06;77.41;102227.31;4969269;28;20231;-72
2022/01/22 00:47:47;;;;;;;1.70;1.60;;;5.90;99.90;;;6.04;77.27;102222.19;4992542;28;20292;-72
2022/01/22 00:50:18;;;;;;;2.70;2.38;;;5.90;99.90;;;5.97;77.56;102223.25;4977898;28;20873;-72
2022/01/22 00:52:46;;;;;;;2.30;2.13;;;5.80;99.90;;;6.01;76.84;102227.44;4974624;28;20206;-72
2022/01/22 00:55:14;;;;;;;2.47;1.77;;;5.80;99.90;;;5.87;78.40;102221.81;4971396;28;20716;-72
2022/01/22 00:57:41;;;;;;;4.88;0.65;;;5.80;99.90;;;5.98;77.92;102227.53;4987677;28;20214;-72
2022/01/22 01:00:12;;;;;;;1.88;1.77;;;5.80;99.90;;;5.98;78.09;102224.94;4972998;28;20208;-71
2022/01/22 01:02:39;;;;;;;1.38;1.13;;;5.80;99.90;;;5.90;78.09;102223.47;4972335;28;20208;-71
2022/01/22 01:05:10;;;;;;;3.30;1.65;;;5.80;99.90;;;5.96;77.63;102231.06;4970056;28;20653;-71
2022/01/22 01:07:37;;;;;;;3.85;2.55;;;5.80;99.90;;;6.01;77.78;102234.34;4970625;28;20685;-71
2022/01/22 01:10:08;;;;;;;2.08;1.90;;;5.80;99.90;;;5.93;77.73;102226.81;4971794;28;20204;-72
2022/01/22 01:12:39;;;;;;;3.80;2.13;;;5.70;99.90;;;5.90;78.26;102221.69;4988486;28;20740;-73
2022/01/22 01:34:17;;;;;;;3.53;1.80;;;5.80;99.90;;;6.07;77.62;102222.06;4978206;28;20660;-71
2022/01/22 01:36:46;;;;;;;2.28;2.08;;;5.90;99.90;;;6.04;77.99;102223.91;4985026;28;20245;-71
2022/01/22 01:39:32;;;;;;;3.15;2.85;;;5.90;99.90;;;6.10;78.48;102222.00;4971620;28;20239;-70
2022/01/22 01:42:04;;;;;;;1.45;1.35;;;5.90;99.90;;;6.10;78.15;102227.19;4986206;28;20196;-71
2022/01/22 01:44:32;;;;;;;1.77;1.67;;;5.90;99.90;;;6.06;78.43;102230.75;4987058;28;20218;-72
2022/01/22 01:47:04;;;;;;;1.73;1.55;;;5.90;99.90;;;6.06;78.52;102225.59;4972503;28;20679;-71
2022/01/22 01:49:31;;;;;;;3.35;1.40;;;5.90;99.90;;;5.99;78.46;102229.22;4989266;28;20220;-71
2022/01/22 01:52:01;;;;;;;1.70;1.60;;;5.90;99.90;;;5.98;78.60;102232.72;4974177;28;20200;-71
2022/01/22 01:54:48;;;;;;;2.42;2.28;;;5.80;99.90;;;6.01;78.63;102232.63;4973022;28;20654;-72
2022/01/22 01:59:54;;;;;;;4.63;2.05;;;5.80;99.90;;;6.01;78.91;102244.72;4972817;28;20204;-71
2022/01/22 02:02:23;;;;;;;2.40;2.20;;;5.90;99.90;;;5.96;78.97;102251.78;4971124;28;20209;-69
2022/01/22 02:04:50;;;;;;;4.18;2.13;;;5.80;99.90;;;5.97;78.71;102254.34;4973287;28;20572;-71
2022/01/22 02:07:17;;;;;;;2.95;1.98;;;5.80;99.90;;;5.96;78.64;102255.22;4970629;28;20239;-71
2022/01/22 02:09:44;;;;;;;2.08;1.52;;;5.80;99.90;;;5.98;78.64;102250.88;4972080;28;20290;-71
2022/01/22 02:12:18;;;;;;;2.58;1.75;;;5.80;99.90;;;5.92;79.15;102245.81;4971024;28;20565;-71
2022/01/22 02:25:49;;;;;;;2.00;1.80;;;5.80;99.90;;;5.98;79.04;102232.72;4977807;28;20231;-69
2022/01/22 02:28:16;;;;;;;4.00;2.40;;;5.80;99.90;;;5.98;78.62;102226.69;4970418;28;20228;-71
2022/01/22 02:30:47;;;;;;;2.33;1.83;;;5.80;99.90;;;5.92;78.74;102229.44;4953138;28;20295;-70
2022/01/22 02:33:39;;;;;;;2.55;2.35;;;5.80;99.90;;;5.94;78.72;102231.09;4972450;28;20295;-71
2022/01/22 02:36:19;;;;;;;3.33;1.45;;;5.80;99.90;;;5.90;79.06;102228.66;4987482;28;20247;-70
2022/01/22 02:38:56;;;;;;;2.17;2.05;;;5.80;99.90;;;5.94;78.50;102231.09;4973495;28;20582;-71
2022/01/22 02:41:25;;;;;;;2.97;2.67;;;5.80;99.90;;;5.96;79.01;102223.28;4972132;28;20212;-72
2022/01/22 02:43:54;;;;;;;1.75;1.65;;;5.80;99.90;;;5.97;78.54;102233.59;4972208;28;20672;-70
2022/01/22 02:46:25;;;;;;;3.67;2.47;;;5.80;99.90;;;6.01;78.22;102229.19;4970617;28;20223;-71
2022/01/22 02:48:54;;;;;;;5.30;2.50;;;5.80;99.90;;;6.00;77.85;102225.75;4971370;28;20287;-69
2022/01/22 02:51:27;;;;;;;3.05;2.78;;;5.80;99.90;;;6.06;78.02;102227.31;4967287;28;20201;-71
2022/01/22 02:53:55;;;;;;;3.38;3.08;;;5.90;99.90;;;6.07;78.34;102218.63;4968505;28;20701;-70
2022/01/22 02:56:24;;;;;;;3.60;2.67;;;5.90;99.90;;;6.09;77.84;102216.88;4951187;29;20646;-71
2022/01/22 02:58:53;;;;;;;2.80;2.60;;;5.90;99.90;;;6.13;78.21;102206.34;4952700;29;20239;-70
2022/01/22 03:01:23;;;;;;;3.17;2.90;;;6.00;99.90;;;6.14;78.11;102208.06;4968610;28;20642;-70
2022/01/22 03:03:50;;;;;;;2.25;2.05;;;6.00;99.90;;;6.16;77.96;102205.41;4969466;28;20212;-70
2022/01/22 03:06:17;;;;;;;4.00;2.30;;;6.00;99.90;;;6.20;78.00;102214.81;5014762;22;20229;-65
2022/01/22 03:08:46;;;;;;;2.45;2.25;;;6.10;99.90;;;6.24;77.11;102214.66;5028418;28;20194;-64
2022/01/22 03:11:23;;;;;;;2.45;1.80;;;6.10;99.90;;;6.27;77.41;102203.38;4994050;28;20202;-63
2022/01/22 03:27:51;;;;;;;2.75;2.42;;;6.00;99.90;;;6.09;77.43;102212.53;5000384;28;20250;-65
2022/01/22 03:30:19;;;;;;;2.40;2.30;;;5.90;99.90;;;6.09;77.67;102212.53;5020957;28;20662;-65
2022/01/22 03:32:50;;;;;;;3.90;2.20;;;6.00;99.90;;;6.13;76.61;102208.94;5029906;28;20211;-66
2022/01/22 03:37:52;;;;;;;2.67;2.47;;;5.90;99.90;;;6.08;77.03;102209.97;5030386;28;20297;-64
2022/01/22 03:40:29;;;;;;;3.80;2.60;;;5.90;99.90;;;6.10;77.59;102224.59;5027304;28;20232;-64
2022/01/22 03:42:56;;;;;;;2.22;2.03;;;5.90;99.90;;;6.12;76.87;102222.81;5013379;28;20360;-64
2022/01/22 03:45:24;;;;;;;3.75;2.33;;;6.00;99.90;;;6.18;77.02;102226.97;5017138;28;20261;-65
2022/01/22 03:47:51;;;;;;;1.95;1.85;;;6.00;99.90;;;6.16;76.95;102220.97;5034995;28;20252;-65
2022/01/22 03:50:19;;;;;;;4.05;2.70;;;6.00;99.90;;;6.12;77.48;102225.41;5033865;28;20206;-64
2022/01/22 03:52:47;;;;;;;3.22;2.00;;;6.00;99.90;;;6.24;76.78;102225.03;5033702;28;20775;-63
2022/01/22 03:55:32;;;;;;;2.08;1.80;;;6.10;99.90;;;6.14;77.09;102222.75;5028927;28;20203;-65
2022/01/22 03:58:01;;;;;;;2.97;2.70;;;6.00;99.90;;;6.15;76.66;102221.88;5026711;28;20548;-64
2022/01/22 04:00:28;;;;;;;3.60;2.60;;;6.00;99.90;;;6.18;75.98;102235.59;5012743;28;20694;-67
2022/01/22 04:05:32;;;;;;;3.13;2.15;;;6.00;99.90;;;6.18;76.54;102227.81;5030279;28;20229;-64
2022/01/22 04:08:15;;;;;;;2.60;2.23;;;6.00;99.90;;;6.16;76.69;102224.41;5032349;28;20600;-64
2022/01/22 04:10:42;;;;;;;3.00;2.63;;;6.00;99.90;;;6.18;76.60;102225.22;5026230;28;20668;-65
2022/01/22 04:13:13;;;;;;;3.05;2.70;;;6.00;99.90;;;6.24;76.63;102226.78;5033224;28;20248;-64
2022/01/22 04:15:41;;;;;;;1.55;1.45;;;6.10;99.90;;;6.15;76.62;102225.28;5027753;28;20233;-65
2022/01/22 04:26:41;;;;;;;4.57;2.90;;;6.00;99.90;;;6.17;76.41;102220.09;5019786;28;20321;-66
2022/01/22 04:29:09;;;;;;;4.75;2.60;;;6.00;99.90;;;6.25;76.16;102212.94;5031451;28;20301;-63
2022/01/22 04:31:36;;;;;;;2.78;2.28;;;6.10;99.90;;;6.19;76.23;102208.78;5030761;28;20213;-66
2022/01/22 04:34:03;;;;;;;2.20;2.00;;;6.00;99.90;;;6.19;76.69;102203.63;5033333;28;20202;-63
2022/01/22 04:36:30;;;;;;;1.58;1.55;;;6.00;99.90;;;6.11;76.65;102202.97;5032180;28;20232;-64
2022/01/22 04:38:57;;;;;;;2.60;1.77;;;6.00;99.90;;;6.22;76.01;102203.50;5033418;28;20202;-63
2022/01/22 04:41:24;;;;;;;5.40;2.45;;;6.10;99.90;;;6.20;76.19;102207.03;5025626;28;20206;-66
2022/01/22 04:43:57;;;;;;;3.42;2.97;;;6.00;99.90;;;6.15;77.04;102201.16;5030197;28;20289;-65
2022/01/22 04:46:37;;;;;;;8.00;3.08;;;6.00;99.90;;;6.20;76.74;102202.69;5031209;28;20279;-65
2022/01/22 04:49:15;;;;;;;3.33;2.15;;;6.00;99.90;;;6.17;76.65;102205.41;5031024;28;20293;-67
2022/01/22 04:57:13;;;;;;;3.00;2.25;;;6.00;99.90;;;6.20;76.69;102194.94;5027237;28;20728;-66
2022/01/22 04:59:40;;;;;;;3.55;2.13;;;6.10;99.90;;;6.24;75.82;102206.91;5015329;28;20229;-64
2022/01/22 05:02:06;;;;;;;4.55;2.50;;;6.10;99.90;;;6.15;76.13;102201.16;5033202;28;20198;-66
2022/01/22 05:04:33;;;;;;;4.45;2.65;;;6.00;99.90;;;6.16;76.66;102208.88;5013662;28;20230;-65
2022/01/22 05:07:00;;;;;;;3.60;2.55;;;6.00;99.90;;;6.13;76.77;102203.75;5026870;28;20710;-65
2022/01/22 05:09:27;;;;;;;2.80;2.58;;;6.00;99.90;;;6.11;76.79;102204.72;5012048;28;20205;-64
2022/01/22 05:11:55;;;;;;;2.35;1.95;;;6.00;99.90;;;6.09;76.24;102206.50;5028439;28;20199;-65
2022/01/22 05:14:23;;;;;;;2.90;2.25;;;6.00;99.90;;;6.07;77.39;102206.53;5020594;28;20374;-67
2022/01/22 05:16:51;;;;;;;2.17;2.08;;;5.90;99.90;;;6.09;76.76;102217.69;5027530;28;20224;-64
2022/01/22 05:19:25;;;;;;;2.53;2.33;;;5.90;99.90;;;6.11;77.21;102215.91;5032459;28;20198;-66
2022/01/22 05:21:55;;;;;;;4.22;2.85;;;5.90;99.90;;;6.11;76.64;102215.91;5033126;28;20203;-66
2022/01/22 05:24:27;;;;;;;3.63;2.45;;;6.00;99.90;;;6.12;77.72;102214.19;5031746;28;20209;-66
2022/01/22 05:37:37;;;;;;;2.60;2.40;;;5.90;99.90;;;6.13;77.06;102224.50;5011262;28;20207;-67
2022/01/22 05:40:05;;;;;;;3.22;2.53;;;5.90;99.90;;;6.15;77.28;102221.88;5014343;28;20205;-65
2022/01/22 05:42:32;;;;;;;3.28;2.35;;;6.00;99.90;;;6.15;76.98;102224.47;4997664;28;20561;-65
2022/01/22 05:44:59;;;;;;;5.40;3.15;;;6.00;99.90;;;6.17;77.10;102228.72;5030307;28;20202;-63
2022/01/22 05:47:27;;;;;;;4.80;2.60;;;6.00;99.90;;;6.19;76.67;102233.84;5031313;28;20715;-64
2022/01/22 05:49:55;;;;;;;4.80;2.17;;;6.00;99.90;;;6.20;77.16;102226.03;5020845;28;20203;-64
2022/01/22 05:52:41;;;;;;;6.47;2.07;;;6.10;99.90;;;6.21;76.78;102224.28;5011790;28;21222;-66
2022/01/22 05:55:38;;;;;;;2.70;2.50;;;6.10;99.90;;;6.23;76.13;102228.53;5013655;28;20996;-66
2022/01/22 06:00:41;;;;;;;1.83;1.73;;;6.10;99.90;;;6.25;75.78;102231.94;5023296;28;20206;-66
2022/01/22 06:03:09;;;;;;;1.90;1.80;;;6.10;99.90;;;6.20;75.73;102226.03;5013091;28;20674;-66
2022/01/22 06:05:36;;;;;;;3.85;1.90;;;6.10;99.90;;;6.18;75.65;102232.13;5030056;28;20686;-65
2022/01/22 06:08:04;;;;;;;2.50;2.30;;;6.00;99.90;;;6.13;76.66;102232.28;5031262;28;20257;-64
2022/01/22 06:10:33;;;;;;;2.95;2.30;;;6.00;99.90;;;6.10;76.66;102244.47;5019675;28;20282;-65
2022/01/22 06:13:19;;;;;;;2.08;1.92;;;6.00;99.90;;;6.16;76.62;102241.69;5029660;28;20289;-64
2022/01/22 06:15:46;;;;;;;2.42;2.28;;;6.00;99.90;;;6.09;76.56;102241.03;5029926;28;20243;-64
2022/01/22 06:18:13;;;;;;;4.32;2.50;;;5.90;99.90;;;6.17;76.25;102246.88;5013527;28;20208;-65
2022/01/22 06:20:40;;;;;;;1.85;1.75;;;6.00;99.90;;;6.16;76.75;102250.34;5031073;28;20202;-64
2022/01/22 06:23:07;;;;;;;6.18;1.60;;;6.00;99.90;;;6.16;76.08;102250.34;5030993;28;20206;-64
2022/01/22 06:25:34;;;;;;;1.65;1.55;;;6.10;99.90;;;6.11;76.14;102257.38;5025380;28;22119;-67
2022/01/22 06:28:01;;;;;;;2.70;1.90;;;6.00;99.90;;;6.17;76.17;102253.78;5027915;28;20224;-67
2022/01/22 06:30:28;;;;;;;1.77;1.67;;;6.00;99.90;;;6.18;75.75;102264.09;5013225;28;20308;-64
2022/01/22 06:32:56;;;;;;;3.67;1.45;;;6.00;99.90;;;6.21;75.92;102255.41;5026064;28;20281;-63
2022/01/22 06:35:23;;;;;;;3.00;1.90;;;6.10;99.90;;;6.15;76.10;102256.41;4994323;28;20228;-63
2022/01/22 06:37:51;;;;;;;3.55;1.90;;;6.10;99.90;;;6.19;75.95;102268.41;4993679;28;20202;-66
2022/01/22 06:42:45;;;;;;;1.85;1.75;;;6.00;99.90;;;6.15;76.34;102264.19;5025828;28;20579;-66
2022/01/22 06:45:15;;;;;;;2.30;1.95;;;6.00;99.90;;;6.13;76.25;102255.59;5012862;28;20245;-65
2022/01/22 06:47:42;;;;;;;2.08;1.92;;;6.00;99.90;;;6.05;76.81;102267.91;5013057;28;20254;-66
2022/01/22 06:50:10;;;;;;;2.30;2.17;;;5.90;99.90;;;6.05;76.50;102260.16;5022914;28;20199;-64
2022/01/22 06:52:39;;;;;;;2.13;1.92;;;5.90;99.90;;;5.99;76.77;102262.91;5029856;28;20644;-64
2022/01/22 06:55:07;;;;;;;3.08;2.63;;;5.80;99.90;;;6.07;76.58;102270.47;5018668;28;20212;-66
2022/01/22 06:57:34;;;;;;;3.10;2.10;;;5.90;99.90;;;6.10;77.84;102265.22;5020816;28;20217;-64
2022/01/22 07:00:01;;;;;;;2.85;2.28;;;5.90;99.90;;;6.05;76.99;102262.75;5009686;28;20225;-66
2022/01/22 07:02:28;;;;;;;2.45;1.70;;;5.90;99.90;;;6.09;77.33;102261.75;4993469;28;20301;-63
2022/01/22 07:04:55;;;;;;;6.82;1.85;;;5.90;99.90;;;6.15;76.63;102271.94;5024384;28;20226;-65
2022/01/22 07:07:22;;;;;;;4.13;2.28;;;6.00;99.90;;;6.19;76.81;102273.59;5009545;28;20234;-65
2022/01/22 07:09:49;;;;;;;1.58;1.48;;;6.00;99.90;;;6.24;77.00;102276.88;5019701;28;20256;-64
2022/01/22 07:12:16;;;;;;;1.58;1.48;;;6.10;99.90;;;6.18;76.11;102274.47;5031200;28;20210;-63
2022/01/22 07:14:45;;;;;;;3.30;2.53;;;6.00;99.90;;;6.17;76.54;102283.16;5025591;28;20685;-66
2022/01/22 07:17:12;;;;;;;2.40;2.30;;;6.00;99.90;;;6.22;76.75;102273.50;5026755;28;20288;-64
2022/01/22 07:19:41;;;;;;;6.13;2.90;;;6.10;99.90;;;6.21;77.35;102279.59;5034202;28;20212;-64
2022/01/22 07:22:37;;;;;;;2.58;2.38;;;6.00;99.90;;;6.24;77.43;102276.03;5014439;28;20686;-64
2022/01/22 07:24:58;;;;;;;2.85;2.05;;;6.10;99.90;;;6.26;76.14;102280.28;5016074;28;20205;-63
2022/01/22 07:27:25;;;;;;;2.73;2.53;;;6.10;99.90;;;6.30;75.99;102282.81;5029184;28;20222;-64
2022/01/22 07:29:52;;;;;;;2.40;2.20;;;6.10;99.90;;;6.32;76.88;102284.47;5012414;28;20636;-66
2022/01/22 07:32:28;;;;;;;2.40;2.20;;;6.20;99.90;;;6.34;75.79;102292.19;5012969;28;20205;-66
2022/01/22 07:34:55;;;;;;;2.10;1.90;;;6.20;99.90;;;6.31;76.08;102298.31;5013793;28;20190;-66
2022/01/22 07:37:23;;;;;;;1.42;1.33;;;6.20;99.90;;;6.34;76.32;102302.56;5010174;28;20227;-63
2022/01/22 07:39:50;;;;;;;3.08;2.03;;;6.20;99.90;;;6.37;75.93;102300.72;5013261;28;20210;-63
2022/01/22 07:42:17;;;;;;;2.63;2.25;;;6.20;99.90;;;6.33;76.45;102295.66;5031684;28;20250;-64
2022/01/22 07:44:44;;;;;;;2.22;2.13;;;6.20;99.90;;;6.38;76.17;102294.66;5026570;28;20285;-64
2022/01/22 07:47:11;;;;;;;2.33;2.17;;;6.20;99.90;;;6.40;75.78;102299.78;5032489;28;20694;-65
2022/01/22 07:49:38;;;;;;;3.15;2.50;;;6.20;99.90;;;6.37;76.20;102305.09;5012753;28;20277;-64
2022/01/22 07:52:06;;;;;;;1.83;1.73;;;6.20;99.90;;;6.44;75.74;102304.00;5015050;28;20687;-66
2022/01/22 07:54:34;;;;;;;3.38;2.33;;;6.30;99.90;;;6.47;75.13;102296.13;4996910;28;20203;-66
2022/01/22 07:57:02;;;;;;;1.42;1.30;;;6.30;99.90;;;6.49;74.62;102294.34;5013318;28;20687;-63
2022/01/22 07:59:30;;;;;;;4.30;1.80;;;6.30;99.90;;;6.48;74.67;102285.72;5019472;28;20282;-65
2022/01/22 08:01:57;;;;;;;1.92;1.83;;;6.30;99.90;;;6.53;75.22;102288.19;5013788;28;20218;-65
2022/01/22 08:04:25;;;;;;;2.25;2.05;;;6.40;99.90;;;6.56;75.36;102286.34;5018500;28;20206;-64
2022/01/22 08:06:53;;;;;;;2.33;2.15;;;6.40;99.90;;;6.58;75.11;102296.69;5032800;28;20667;-64
2022/01/22 08:09:20;;;;;;;1.77;1.67;;;6.40;99.90;;;6.63;74.71;102305.16;5011616;28;20206;-66
2022/01/22 08:11:48;;;;;;;4.00;2.03;;;6.50;99.90;;;6.63;74.62;102297.38;5013569;28;20636;-64
2022/01/22 08:14:15;;;;;;;1.80;1.70;;;6.50;99.90;;;6.64;74.40;102296.50;4995417;28;20567;-63
2022/01/22 08:16:49;;;;;;;1.90;1.80;;;6.50;99.90;;;6.60;75.22;102293.13;5018014;28;20990;-67
2022/01/22 08:19:23;;;;;;;1.70;1.60;;;6.40;99.90;;;6.55;74.58;102296.75;5014425;28;20203;-65
2022/01/22 08:21:50;;;;;;;4.33;2.00;;;6.50;99.90;;;6.57;74.77;102308.78;5011521;28;20624;-64
2022/01/22 08:24:19;;;;;;;1.57;1.47;;;6.40;99.90;;;6.48;74.84;102311.66;5012078;28;20647;-64
2022/01/22 08:26:51;;;;;;;1.85;1.75;;;6.50;99.90;;;6.50;75.95;102311.59;5012642;28;20641;-64
2022/01/22 08:29:18;;;;;;;1.63;1.55;;;6.40;99.90;;;6.62;75.39;102293.94;5015371;28;20595;-63
2022/01/22 08:31:50;;;;;;;1.95;1.85;;;6.50;99.90;;;6.65;74.06;102290.41;5032310;28;20615;-64
2022/01/22 08:37:04;;;;;;;1.25;1.25;;;6.50;99.90;;;6.64;75.34;102286.97;5026486;28;20230;-66
2022/01/22 08:39:31;;;;;;;2.58;2.33;;;6.50;99.90;;;6.70;74.57;102293.72;5020504;28;20198;-63
2022/01/22 08:41:58;;;;;;;1.90;1.80;;;6.60;99.90;;;6.67;75.15;102298.97;5027246;28;20260;-65
2022/01/22 08:44:25;;;;;;;2.47;1.60;;;6.50;99.90;;;6.72;75.17;102294.53;5014574;28;20619;-65
2022/01/22 08:46:52;;;;;;;3.67;1.67;;;6.60;99.90;;;6.81;75.25;102291.66;5031198;28;21282;-64
2022/01/22 08:49:19;;;;;;;1.50;1.40;;;6.70;99.90;;;6.81;75.04;102292.53;5024607;28;20635;-64
2022/01/22 08:51:46;;;;;;;1.50;1.40;;;6.70;99.90;;;6.97;74.03;102298.06;5032090;28;20285;-66
2022/01/22 08:54:13;;;;;;;1.70;1.60;;;6.90;99.90;;;6.99;74.50;102297.13;5031526;28;20673;-64
2022/01/22 08:56:41;;;;;;;1.67;1.42;;;6.90;99.90;;;6.87;74.97;102307.03;5031032;28;20309;-65
2022/01/22 08:59:09;;;;;;;1.75;1.40;;;7.00;99.90;;;7.17;73.52;102302.66;5027767;28;20206;-64
2022/01/22 09:01:42;;;;;;;3.93;1.70;;;7.10;99.90;;;7.30;72.07;102304.81;5015161;28;20232;-65
2022/01/22 09:04:10;;;;;;;1.53;1.53;;;7.40;99.90;;;7.30;72.40;102311.75;5003502;28;20642;-66
2022/01/22 09:06:37;;;;;;;1.15;1.15;;;7.30;99.90;;;7.05;72.69;102319.44;5046888;22;20686;-73
2022/01/22 09:09:10;;;;;;;2.90;2.43;;;7.30;99.90;;;7.24;72.34;102315.38;4996050;28;20230;-72
2022/01/22 09:11:41;;;;;;;0.70;0.70;;;7.20;99.90;;;7.16;72.55;102319.97;4996862;28;20629;-71
2022/01/22 09:14:11;;;;;;;2.70;1.60;;;7.20;99.90;;;7.20;73.41;102326.75;4991349;28;21241;-72
2022/01/22 09:16:39;;;;;;;0.80;0.80;;;7.20;99.90;;;7.24;73.22;102325.75;4972711;28;20754;-71
2022/01/22 09:19:10;;;;;;;2.50;1.30;;;7.20;99.90;;;6.99;74.56;102320.50;5006624;28;20266;-71
2022/01/22 09:21:42;;;;;;;1.70;1.60;;;7.00;99.90;;;7.20;73.57;102337.16;5003313;28;20637;-71
2022/01/22 09:24:11;;;;;;;2.33;2.10;;;7.20;99.90;;;7.21;73.17;102335.41;4994388;28;20207;-71
2022/01/22 09:26:38;;;;;;;2.95;1.63;;;7.10;99.90;;;7.32;73.65;102347.16;5006892;28;20646;-71
2022/01/22 09:29:05;;;;;;;1.75;1.65;;;7.20;99.90;;;7.29;73.63;102351.59;4997824;28;20653;-71
2022/01/22 09:31:33;;;;;;;1.50;1.40;;;7.20;99.90;;;7.24;74.10;102346.53;4991317;28;20199;-71
2022/01/22 09:34:02;;;;;;;1.90;1.70;;;7.20;99.90;;;7.25;74.99;102350.00;4976619;28;20780;-72
2022/01/22 09:36:30;;;;;;;2.30;2.10;;;7.10;99.90;;;7.33;74.81;102356.63;4986391;28;20223;-69
2022/01/22 09:38:58;;;;;;;2.60;2.40;;;7.20;99.90;;;7.35;74.63;102357.44;4991864;28;20822;-71
2022/01/22 09:41:27;;;;;;;2.67;1.85;;;7.20;99.90;;;7.35;74.24;102362.63;4990672;28;20687;-69
2022/01/22 09:43:55;;;;;;;2.30;2.20;;;7.20;99.90;;;7.35;74.98;102364.38;4994039;28;20212;-72
2022/01/22 09:46:25;;;;;;;1.43;1.37;;;7.20;99.90;;;7.42;75.48;102358.09;4998132;28;20661;-71
2022/01/22 09:48:53;;;;;;;3.33;1.90;;;7.30;99.90;;;7.42;75.23;102358.97;4989011;28;21018;-69
2022/01/22 09:51:20;;;;;;;2.73;1.90;;;7.30;99.90;;;7.27;75.97;102366.38;4999069;28;21182;-72
2022/01/22 09:53:47;;;;;;;1.53;1.53;;;7.20;99.90;;;7.33;76.20;102367.03;4987943;28;20641;-72
2022/01/22 09:56:21;;;;;;;1.40;1.30;;;7.20;99.90;;;7.35;75.72;102377.34;4998161;28;20723;-71
2022/01/22 09:58:49;;;;;;;4.07;1.60;;;7.20;99.90;;;7.38;75.71;102372.94;4997336;28;20633;-72
2022/01/22 10:01:26;;;;;;;1.70;1.47;;;7.20;99.90;;;7.20;77.08;102373.50;4988142;28;20605;-73
2022/01/22 10:03:57;;;;;;;2.60;1.70;;;7.20;99.90;;;7.33;76.89;102374.81;5006663;28;20641;-73
2022/01/22 10:06:29;;;;;;;1.30;1.20;;;7.20;99.90;;;7.40;76.45;102376.34;4994096;28;20708;-73
2022/01/22 10:09:13;;;;;;;1.83;1.73;;;7.20;99.90;;;7.46;76.21;102377.88;4989317;28;21043;-72
2022/01/22 10:11:42;;;;;;;2.67;2.40;;;7.30;99.90;;;7.56;76.51;102380.13;5005023;28;21215;-73
2022/01/22 10:14:09;;;;;;;2.03;1.93;;;7.40;99.90;;;7.61;76.67;102373.06;4992195;28;21223;-73
2022/01/22 10:16:39;;;;;;;7.07;1.80;;;7.50;99.90;;;7.75;76.09;102381.25;5001626;28;20676;-74
2022/01/22 10:19:13;;;;;;;9.13;1.80;;;7.60;99.90;;;7.77;74.80;102369.06;5005605;28;20726;-73
2022/01/22 10:22:04;;;;;;;4.63;1.30;;;7.60;99.90;;;7.86;74.37;102372.28;4988854;28;20639;-72
2022/01/22 10:24:42;;;;;;;2.20;1.97;;;7.80;99.90;;;7.58;75.45;102365.34;4991419;28;20591;-72
2022/01/22 10:27:32;;;;;;;2.13;2.03;;;7.70;99.90;;;7.78;74.57;102365.56;4989533;28;20652;-75
2022/01/22 10:30:06;;;;;;;0.90;0.90;;;7.70;99.90;;;7.70;75.37;102358.94;5001008;28;20640;-72
2022/01/22 10:32:50;;;;;;;6.03;2.00;;;7.60;99.90;;;7.75;74.63;102360.47;5010445;28;20621;-73
2022/01/22 10:35:25;;;;;;;1.80;1.70;;;7.60;99.90;;;7.80;76.02;102355.97;4999606;28;20629;-73
2022/01/22 10:38:13;;;;;;;1.20;1.20;;;7.60;99.90;;;7.90;75.00;102355.66;4997431;28;20630;-73
2022/01/22 10:40:42;;;;;;;1.23;1.23;;;7.80;99.90;;;7.87;75.13;102363.56;4988302;28;20645;-73
2022/01/22 10:43:32;;;;;;;1.87;1.70;;;7.70;99.90;;;7.97;74.25;102354.53;4966881;28;21014;-72
2022/01/22 10:48:53;;;;;;;1.20;1.20;;;7.90;99.90;;;8.03;74.88;102351.75;5003491;28;21287;-73
2022/01/22 10:51:20;;;;;;;1.90;1.20;;;8.00;99.90;;;8.07;74.08;102351.56;4989395;28;20652;-73
2022/01/22 10:53:52;;;;;;;1.10;1.10;;;8.00;99.90;;;8.10;74.43;102354.09;4989003;28;20645;-75
2022/01/22 10:56:22;;;;;;;1.80;1.70;;;8.00;99.90;;;8.02;74.47;102350.03;4988092;28;20720;-73
2022/01/22 10:59:06;;;;;;;1.17;1.10;;;7.90;99.90;;;8.01;74.63;102345.75;4987061;28;20741;-73
2022/01/22 11:01:59;;;;;;;1.07;0.93;;;7.90;99.90;;;8.12;75.36;102354.88;5002359;28;20621;-73
2022/01/22 11:04:46;;;;;;;1.03;1.03;;;8.00;99.90;;;8.15;74.66;102352.19;4998863;28;20663;-72
2022/01/22 11:07:19;;;;;;;1.83;1.73;;;8.00;99.90;;;8.14;74.86;102350.47;5008749;28;20681;-73
2022/01/22 11:09:55;;;;;;;1.67;1.50;;;8.00;99.90;;;8.07;75.20;102358.56;4972589;28;21089;-73
2022/01/22 11:12:22;;;;;;;2.20;1.10;;;7.90;99.90;;;7.97;75.09;102359.75;4971986;28;21246;-73
2022/01/22 11:14:49;;;;;;;1.50;1.43;;;7.90;99.90;;;8.00;75.06;102362.25;4983431;28;20705;-74
2022/01/22 11:17:18;;;;;;;4.57;3.00;;;7.80;99.90;;;8.06;75.54;102369.84;4995393;28;20650;-72
2022/01/22 11:19:47;;;;;;;3.13;0.97;;;7.90;99.90;;;8.06;75.77;102373.28;4988176;28;20757;-73
2022/01/22 11:22:16;;;;;;;10.60;4.53;;;7.90;99.90;;;8.04;75.58;102379.44;4990957;28;21212;-74
2022/01/22 11:24:47;;;;;;;10.90;2.10;;;7.90;99.90;;;8.10;75.53;102374.03;4990845;28;20625;-73
2022/01/22 11:27:20;;;;;;;9.03;1.43;;;8.00;99.90;;;8.10;75.38;102368.81;4976224;28;20647;-72
2022/01/22 11:29:52;;;;;;;13.10;1.37;;;8.00;99.90;;;8.19;74.34;102373.72;4973887;28;20662;-70
2022/01/22 11:32:27;;;;;;;18.73;1.90;;;8.10;99.90;;;8.15;74.84;102385.13;4990508;28;21178;-72
2022/01/22 11:35:01;;;;;;;13.47;1.97;;;8.00;99.90;;;8.12;75.00;102386.06;4990770;28;20606;-70
2022/01/22 11:37:43;;;;;;;19.37;1.70;;;8.10;99.90;;;8.07;75.16;102379.34;4990165;28;21090;-70
2022/01/22 11:40:18;;;;;;;11.60;1.40;;;8.00;99.90;;;8.04;74.60;102375.09;4990729;28;20618;-69
2022/01/22 11:45:46;;;;;;;18.57;1.20;;;7.90;99.90;;;8.02;75.28;102374.31;4989573;28;21150;-70
2022/01/22 11:48:25;;;;;;;16.60;1.70;;;7.90;99.90;;;8.05;75.09;102386.34;4990348;28;21272;-70
2022/01/22 11:51:23;;;;;;;15.87;1.40;;;7.90;99.90;;;8.07;74.95;102381.94;4990436;28;20697;-72
2022/01/22 11:53:57;;;;;;;15.50;1.37;;;7.90;99.90;;;8.09;75.31;102380.97;4990722;28;20706;-68
2022/01/22 11:56:28;;;;;;;15.80;1.60;;;7.90;99.90;;;8.13;74.53;102379.13;4990151;28;21219;-69
2022/01/22 11:59:05;;;;;;;17.60;2.00;;;8.00;99.90;;;8.09;74.88;102377.53;4990837;28;20709;-69
2022/01/22 12:01:40;;;;;;;15.10;1.60;;;7.90;99.90;;;8.12;74.83;102374.81;4995252;28;21165;-71
2022/01/22 12:04:11;;;;;;;15.63;1.20;;;7.90;99.90;;;8.12;74.85;102374.81;4995272;28;20637;-72
2022/01/22 12:07:00;;;;;;;16.37;1.53;;;7.90;99.90;;;8.09;74.84;102373.16;4993501;28;20650;-70
2022/01/22 12:15:32;;;;;;;15.70;1.30;;;7.90;99.90;;;8.08;74.87;102355.88;4994750;28;20618;-70
2022/01/22 12:18:05;;;;;;;17.37;1.57;;;7.90;99.90;;;8.01;74.13;102356.16;4994967;28;20633;-70